Happy Puppy — CFN5446 — position and weather

sailwx.info

Track history (hours):
 
Tides and Currents Weather Stations Pressure Air Temp Water Temp Dewpoint Dewpoint Depression Visibility Wind Speed Wind Dir Waves Ship Positions

Happy Puppy

Last reported at 2014-Sep-14 18:27 UTC. Time now 2014-Sep-16 13:32 UTC.
Position N 44°14' W 076°36'.

Length 11 m.

Type: Pleasure craft. MMSI: 316018857.

Date/timePositionNaut miles runAvg speedWind from/ knotsBaromVisibWave heightAir tempDewpointWater temp
2014-Sep-14 18:27N 44°14' W 076°36'0 0.0
2014-Sep-14 17:21N 44°14' W 076°36'0 0.0
2014-Sep-14 16:33N 44°14' W 076°36'0 0.0
2014-Sep-14 15:33N 44°14' W 076°36'0 0.0
2014-Sep-14 14:33N 44°14' W 076°36'0 0.0
2014-Sep-14 13:33N 44°14' W 076°36'0 0.0
2014-Sep-14 12:33N 44°14' W 076°36'0 0.0
2014-Sep-14 11:33N 44°14' W 076°36'0 0.0
2014-Sep-14 10:33N 44°14' W 076°36'0 0.0
2014-Sep-14 09:33N 44°14' W 076°36'0 0.0
2014-Sep-14 08:27N 44°14' W 076°36'0 0.0
2014-Sep-14 07:33N 44°14' W 076°36'0 0.0
2014-Sep-14 06:27N 44°14' W 076°36'0 0.0
2014-Sep-14 05:33N 44°14' W 076°36'0 0.0
2014-Sep-14 04:33N 44°14' W 076°36'0 0.0
2014-Sep-14 03:33N 44°14' W 076°36'0 0.0
2014-Sep-14 02:33N 44°14' W 076°36'0 0.0
2014-Sep-14 01:33N 44°14' W 076°36'0 0.0
2014-Sep-13 21:33N 44°14' W 076°36'2 0.3
2014-Sep-13 12:33N 44°13' W 076°39'  
2014-Sep-07 17:28N 44°14' W 076°36'0 0.0
2014-Sep-07 16:31N 44°14' W 076°36'0 0.0
2014-Sep-07 15:28N 44°14' W 076°36'0 0.0
2014-Sep-07 13:28N 44°14' W 076°36'0 0.0
2014-Sep-07 12:28N 44°14' W 076°36'0 0.0
2014-Sep-07 11:31N 44°14' W 076°36'0 0.0
2014-Sep-07 10:22N 44°14' W 076°36'0 0.0
2014-Sep-07 09:28N 44°14' W 076°36'0 0.0
2014-Sep-07 08:28N 44°14' W 076°36'0 0.0
2014-Sep-07 07:22N 44°14' W 076°36'0 0.0
2014-Sep-07 06:28N 44°14' W 076°36'0 0.0
2014-Sep-07 05:16N 44°14' W 076°36'0 0.0
2014-Sep-07 04:22N 44°14' W 076°36'0 0.0
2014-Sep-07 03:04N 44°14' W 076°36'0 0.0
2014-Sep-07 02:28N 44°14' W 076°36'0 0.0
2014-Sep-07 01:22N 44°14' W 076°36'0 0.0
2014-Sep-07 00:28N 44°14' W 076°36'0 0.0
2014-Sep-06 23:28N 44°14' W 076°36'0 0.0
2014-Sep-06 22:28N 44°14' W 076°36'0 0.0
2014-Sep-06 21:22N 44°14' W 076°36'0 0.0
2014-Sep-06 20:28N 44°14' W 076°36'0 0.0
2014-Sep-06 19:22N 44°14' W 076°36'0 0.0
2014-Sep-06 18:33N 44°14' W 076°36'4 3.8
2014-Sep-06 17:33N 44°11' W 076°36'7 5.6
2014-Sep-06 16:20N 44°04' W 076°32'5 6.0
2014-Sep-06 15:30N 44°09' W 076°34'3 2.7
2014-Sep-06 14:33N 44°12' W 076°35'3 2.6
2014-Sep-06 13:24N 44°14' W 076°36'0 0.0
2014-Sep-06 12:30N 44°14' W 076°36'0 0.0
2014-Sep-06 11:33N 44°14' W 076°36'  
Track history (hours):
 
Tides and Currents Weather Stations Pressure Air Temp Water Temp Dewpoint Dewpoint Depression Visibility Wind Speed Wind Dir Waves Ship Positions

Happy Puppy

Last reported at 2014-Sep-14 18:27 UTC. Time now 2014-Sep-16 13:32 UTC.
Position N 44°14' W 076°36'.

Length 11 m.

Type: Pleasure craft. MMSI: 316018857.

Date/timePositionNaut miles runAvg speedWind from/ knotsBaromVisibWave heightAir tempDewpointWater temp
2014-Sep-14 18:27N 44°14' W 076°36'0 0.0
2014-Sep-14 17:21N 44°14' W 076°36'0 0.0
2014-Sep-14 16:33N 44°14' W 076°36'0 0.0
2014-Sep-14 15:33N 44°14' W 076°36'0 0.0
2014-Sep-14 14:33N 44°14' W 076°36'0 0.0
2014-Sep-14 13:33N 44°14' W 076°36'0 0.0
2014-Sep-14 12:33N 44°14' W 076°36'0 0.0
2014-Sep-14 11:33N 44°14' W 076°36'0 0.0
2014-Sep-14 10:33N 44°14' W 076°36'0 0.0
2014-Sep-14 09:33N 44°14' W 076°36'0 0.0
2014-Sep-14 08:27N 44°14' W 076°36'0 0.0
2014-Sep-14 07:33N 44°14' W 076°36'0 0.0
2014-Sep-14 06:27N 44°14' W 076°36'0 0.0
2014-Sep-14 05:33N 44°14' W 076°36'0 0.0
2014-Sep-14 04:33N 44°14' W 076°36'0 0.0
2014-Sep-14 03:33N 44°14' W 076°36'0 0.0
2014-Sep-14 02:33N 44°14' W 076°36'0 0.0
2014-Sep-14 01:33N 44°14' W 076°36'0 0.0
2014-Sep-13 21:33N 44°14' W 076°36'2 0.3
2014-Sep-13 12:33N 44°13' W 076°39'  
2014-Sep-07 17:28N 44°14' W 076°36'0 0.0
2014-Sep-07 16:31N 44°14' W 076°36'0 0.0
2014-Sep-07 15:28N 44°14' W 076°36'0 0.0
2014-Sep-07 13:28N 44°14' W 076°36'0 0.0
2014-Sep-07 12:28N 44°14' W 076°36'0 0.0
2014-Sep-07 11:31N 44°14' W 076°36'0 0.0
2014-Sep-07 10:22N 44°14' W 076°36'0 0.0
2014-Sep-07 09:28N 44°14' W 076°36'0 0.0
2014-Sep-07 08:28N 44°14' W 076°36'0 0.0
2014-Sep-07 07:22N 44°14' W 076°36'0 0.0
2014-Sep-07 06:28N 44°14' W 076°36'0 0.0
2014-Sep-07 05:16N 44°14' W 076°36'0 0.0
2014-Sep-07 04:22N 44°14' W 076°36'0 0.0
2014-Sep-07 03:04N 44°14' W 076°36'0 0.0
2014-Sep-07 02:28N 44°14' W 076°36'0 0.0
2014-Sep-07 01:22N 44°14' W 076°36'0 0.0
2014-Sep-07 00:28N 44°14' W 076°36'0 0.0
2014-Sep-06 23:28N 44°14' W 076°36'0 0.0
2014-Sep-06 22:28N 44°14' W 076°36'0 0.0
2014-Sep-06 21:22N 44°14' W 076°36'0 0.0
2014-Sep-06 20:28N 44°14' W 076°36'0 0.0
2014-Sep-06 19:22N 44°14' W 076°36'0 0.0
2014-Sep-06 18:33N 44°14' W 076°36'4 3.8
2014-Sep-06 17:33N 44°11' W 076°36'7 5.6
2014-Sep-06 16:20N 44°04' W 076°32'5 6.0
2014-Sep-06 15:30N 44°09' W 076°34'3 2.7
2014-Sep-06 14:33N 44°12' W 076°35'3 2.6
2014-Sep-06 13:24N 44°14' W 076°36'0 0.0
2014-Sep-06 12:30N 44°14' W 076°36'0 0.0
2014-Sep-06 11:33N 44°14' W 076°36'  

Dump ship's entire track history